sensor_id;sensor_type;location;lat;lon;timestamp;P1;P2;P0
49644;PMS5003;36494;50.730;-1.932;2023-07-22T00:01:20;3;3;
49644;PMS5003;36494;50.730;-1.932;2023-07-22T00:03:45;3;3;
49644;PMS5003;36494;50.730;-1.932;2023-07-22T00:06:10;3;3;
49644;PMS5003;36494;50.730;-1.932;2023-07-22T00:08:36;4;3;
49644;PMS5003;36494;50.730;-1.932;2023-07-22T00:11:01;2;2;
49644;PMS5003;36494;50.730;-1.932;2023-07-22T00:13:26;2;2;
49644;PMS5003;36494;50.730;-1.932;2023-07-22T00:15:51;6;5;
49644;PMS5003;36494;50.730;-1.932;2023-07-22T00:18:17;4;4;
49644;PMS5003;36494;50.730;-1.932;2023-07-22T00:20:42;3;3;
49644;PMS5003;36494;50.730;-1.932;2023-07-22T00:23:07;3;3;
49644;PMS5003;36494;50.730;-1.932;2023-07-22T00:25:33;3;3;
49644;PMS5003;36494;50.730;-1.932;2023-07-22T00:27:58;3;3;
49644;PMS5003;36494;50.730;-1.932;2023-07-22T00:30:23;2;2;
49644;PMS5003;36494;50.730;-1.932;2023-07-22T00:32:48;4;4;
49644;PMS5003;36494;50.730;-1.932;2023-07-22T00:35:14;3;3;
49644;PMS5003;36494;50.730;-1.932;2023-07-22T00:37:39;4;4;
49644;PMS5003;36494;50.730;-1.932;2023-07-22T00:40:05;3;3;
49644;PMS5003;36494;50.730;-1.932;2023-07-22T00:42:30;6;6;
49644;PMS5003;36494;50.730;-1.932;2023-07-22T00:44:55;5;5;
49644;PMS5003;36494;50.730;-1.932;2023-07-22T00:47:20;3;3;
49644;PMS5003;36494;50.730;-1.932;2023-07-22T00:49:46;2;2;
49644;PMS5003;36494;50.730;-1.932;2023-07-22T00:52:11;4;3;
49644;PMS5003;36494;50.730;-1.932;2023-07-22T00:54:36;5;5;
49644;PMS5003;36494;50.730;-1.932;2023-07-22T00:57:02;4;3;
49644;PMS5003;36494;50.730;-1.932;2023-07-22T00:59:27;5;5;
49644;PMS5003;36494;50.730;-1.932;2023-07-22T01:01:52;5;5;
49644;PMS5003;36494;50.730;-1.932;2023-07-22T01:04:19;3;3;
49644;PMS5003;36494;50.730;-1.932;2023-07-22T01:06:43;4;4;
49644;PMS5003;36494;50.730;-1.932;2023-07-22T01:09:08;3;3;
49644;PMS5003;36494;50.730;-1.932;2023-07-22T01:11:34;7;7;
49644;PMS5003;36494;50.730;-1.932;2023-07-22T01:13:59;6;5;
49644;PMS5003;36494;50.730;-1.932;2023-07-22T01:16:25;3;3;
49644;PMS5003;36494;50.730;-1.932;2023-07-22T01:18:50;2;2;
49644;PMS5003;36494;50.730;-1.932;2023-07-22T01:21:15;3;3;
49644;PMS5003;36494;50.730;-1.932;2023-07-22T01:23:41;3;3;
49644;PMS5003;36494;50.730;-1.932;2023-07-22T01:26:06;2;2;
49644;PMS5003;36494;50.730;-1.932;2023-07-22T01:28:34;2;2;
49644;PMS5003;36494;50.730;-1.932;2023-07-22T01:30:57;4;3;
49644;PMS5003;36494;50.730;-1.932;2023-07-22T01:33:22;3;3;
49644;PMS5003;36494;50.730;-1.932;2023-07-22T01:35:47;5;5;
49644;PMS5003;36494;50.730;-1.932;2023-07-22T01:38:13;3;3;
49644;PMS5003;36494;50.730;-1.932;2023-07-22T01:40:38;1;1;
49644;PMS5003;36494;50.730;-1.932;2023-07-22T01:43:03;2;2;
49644;PMS5003;36494;50.730;-1.932;2023-07-22T01:45:29;3;3;
49644;PMS5003;36494;50.730;-1.932;2023-07-22T01:47:54;3;2;
49644;PMS5003;36494;50.730;-1.932;2023-07-22T01:50:19;4;3;
49644;PMS5003;36494;50.730;-1.932;2023-07-22T01:52:45;3;3;
49644;PMS5003;36494;50.730;-1.932;2023-07-22T01:55:10;2;2;
49644;PMS5003;36494;50.730;-1.932;2023-07-22T01:57:35;4;3;
49644;PMS5003;36494;50.730;-1.932;2023-07-22T02:00:01;2;2;
49644;PMS5003;36494;50.730;-1.932;2023-07-22T02:02:26;3;3;
49644;PMS5003;36494;50.730;-1.932;2023-07-22T02:04:51;3;3;
49644;PMS5003;36494;50.730;-1.932;2023-07-22T02:07:16;3;3;
49644;PMS5003;36494;50.730;-1.932;2023-07-22T02:12:07;3;3;
49644;PMS5003;36494;50.730;-1.932;2023-07-22T02:14:32;3;3;
49644;PMS5003;36494;50.730;-1.932;2023-07-22T02:16:59;4;4;
49644;PMS5003;36494;50.730;-1.932;2023-07-22T02:19:24;3;3;
49644;PMS5003;36494;50.730;-1.932;2023-07-22T02:21:49;2;2;
49644;PMS5003;36494;50.730;-1.932;2023-07-22T02:24:14;3;3;
49644;PMS5003;36494;50.730;-1.932;2023-07-22T02:26:39;3;3;
49644;PMS5003;36494;50.730;-1.932;2023-07-22T02:29:05;2;2;
49644;PMS5003;36494;50.730;-1.932;2023-07-22T02:31:31;3;3;
49644;PMS5003;36494;50.730;-1.932;2023-07-22T02:33:57;2;2;
49644;PMS5003;36494;50.730;-1.932;2023-07-22T02:36:22;4;4;
49644;PMS5003;36494;50.730;-1.932;2023-07-22T02:38:47;4;4;
49644;PMS5003;36494;50.730;-1.932;2023-07-22T02:41:13;3;3;
49644;PMS5003;36494;50.730;-1.932;2023-07-22T02:43:38;2;2;
49644;PMS5003;36494;50.730;-1.932;2023-07-22T02:46:04;3;3;
49644;PMS5003;36494;50.730;-1.932;2023-07-22T02:48:28;3;3;
49644;PMS5003;36494;50.730;-1.932;2023-07-22T02:50:54;2;2;
49644;PMS5003;36494;50.730;-1.932;2023-07-22T02:53:19;2;2;
49644;PMS5003;36494;50.730;-1.932;2023-07-22T02:55:44;2;2;
49644;PMS5003;36494;50.730;-1.932;2023-07-22T02:58:10;3;3;
49644;PMS5003;36494;50.730;-1.932;2023-07-22T03:00:35;2;2;
49644;PMS5003;36494;50.730;-1.932;2023-07-22T03:03:00;3;2;
49644;PMS5003;36494;50.730;-1.932;2023-07-22T03:05:26;3;3;
49644;PMS5003;36494;50.730;-1.932;2023-07-22T03:07:51;2;2;
49644;PMS5003;36494;50.730;-1.932;2023-07-22T03:10:17;2;2;
49644;PMS5003;36494;50.730;-1.932;2023-07-22T03:12:42;3;3;
49644;PMS5003;36494;50.730;-1.932;2023-07-22T03:15:07;2;2;
49644;PMS5003;36494;50.730;-1.932;2023-07-22T03:17:33;1;1;
49644;PMS5003;36494;50.730;-1.932;2023-07-22T03:19:58;5;3;
49644;PMS5003;36494;50.730;-1.932;2023-07-22T03:22:23;2;2;
49644;PMS5003;36494;50.730;-1.932;2023-07-22T03:24:48;2;2;
49644;PMS5003;36494;50.730;-1.932;2023-07-22T03:27:14;2;2;
49644;PMS5003;36494;50.730;-1.932;2023-07-22T03:29:40;4;4;
49644;PMS5003;36494;50.730;-1.932;2023-07-22T03:32:05;3;3;
49644;PMS5003;36494;50.730;-1.932;2023-07-22T03:34:30;3;2;
49644;PMS5003;36494;50.730;-1.932;2023-07-22T03:36:56;3;2;
49644;PMS5003;36494;50.730;-1.932;2023-07-22T03:39:21;4;3;
49644;PMS5003;36494;50.730;-1.932;2023-07-22T03:41:46;4;3;
49644;PMS5003;36494;50.730;-1.932;2023-07-22T03:44:11;2;2;
49644;PMS5003;36494;50.730;-1.932;2023-07-22T03:46:37;2;2;
49644;PMS5003;36494;50.730;-1.932;2023-07-22T03:49:02;4;3;
49644;PMS5003;36494;50.730;-1.932;2023-07-22T03:51:27;3;3;
49644;PMS5003;36494;50.730;-1.932;2023-07-22T03:53:53;3;3;
49644;PMS5003;36494;50.730;-1.932;2023-07-22T03:56:18;2;2;
49644;PMS5003;36494;50.730;-1.932;2023-07-22T03:58:43;3;2;
49644;PMS5003;36494;50.730;-1.932;2023-07-22T04:01:10;2;2;
49644;PMS5003;36494;50.730;-1.932;2023-07-22T04:03:34;3;3;
49644;PMS5003;36494;50.730;-1.932;2023-07-22T04:05:59;3;3;
49644;PMS5003;36494;50.730;-1.932;2023-07-22T04:08:24;5;3;
49644;PMS5003;36494;50.730;-1.932;2023-07-22T04:10:51;4;4;
49644;PMS5003;36494;50.730;-1.932;2023-07-22T04:13:15;3;3;
49644;PMS5003;36494;50.730;-1.932;2023-07-22T04:15:41;3;2;
49644;PMS5003;36494;50.730;-1.932;2023-07-22T04:18:06;3;3;
49644;PMS5003;36494;50.730;-1.932;2023-07-22T04:20:32;3;2;
49644;PMS5003;36494;50.730;-1.932;2023-07-22T04:22:57;3;3;
49644;PMS5003;36494;50.730;-1.932;2023-07-22T04:25:23;4;3;
49644;PMS5003;36494;50.730;-1.932;2023-07-22T04:27:48;2;2;
49644;PMS5003;36494;50.730;-1.932;2023-07-22T04:30:13;2;2;
49644;PMS5003;36494;50.730;-1.932;2023-07-22T04:32:39;3;3;
49644;PMS5003;36494;50.730;-1.932;2023-07-22T04:35:04;3;3;
49644;PMS5003;36494;50.730;-1.932;2023-07-22T04:37:29;3;3;
49644;PMS5003;36494;50.730;-1.932;2023-07-22T04:39:55;4;4;
49644;PMS5003;36494;50.730;-1.932;2023-07-22T04:42:20;2;2;
49644;PMS5003;36494;50.730;-1.932;2023-07-22T04:44:45;3;3;
49644;PMS5003;36494;50.730;-1.932;2023-07-22T04:47:10;3;3;
49644;PMS5003;36494;50.730;-1.932;2023-07-22T04:49:36;4;3;
49644;PMS5003;36494;50.730;-1.932;2023-07-22T04:52:01;3;2;
49644;PMS5003;36494;50.730;-1.932;2023-07-22T04:54:27;4;4;
49644;PMS5003;36494;50.730;-1.932;2023-07-22T04:56:52;2;2;
49644;PMS5003;36494;50.730;-1.932;2023-07-22T04:59:17;2;2;
49644;PMS5003;36494;50.730;-1.932;2023-07-22T05:01:42;4;4;
49644;PMS5003;36494;50.730;-1.932;2023-07-22T05:04:08;5;5;
49644;PMS5003;36494;50.730;-1.932;2023-07-22T05:06:34;4;4;
49644;PMS5003;36494;50.730;-1.932;2023-07-22T05:08:59;5;5;
49644;PMS5003;36494;50.730;-1.932;2023-07-22T05:11:25;3;3;
49644;PMS5003;36494;50.730;-1.932;2023-07-22T05:13:50;4;3;
49644;PMS5003;36494;50.730;-1.932;2023-07-22T05:16:15;3;2;
49644;PMS5003;36494;50.730;-1.932;2023-07-22T05:18:41;3;2;
49644;PMS5003;36494;50.730;-1.932;2023-07-22T05:21:06;4;3;
49644;PMS5003;36494;50.730;-1.932;2023-07-22T05:23:31;4;4;
49644;PMS5003;36494;50.730;-1.932;2023-07-22T05:25:56;2;2;
49644;PMS5003;36494;50.730;-1.932;2023-07-22T05:28:22;1;1;
49644;PMS5003;36494;50.730;-1.932;2023-07-22T05:30:47;3;2;
49644;PMS5003;36494;50.730;-1.932;2023-07-22T05:33:12;5;4;
49644;PMS5003;36494;50.730;-1.932;2023-07-22T05:35:38;5;5;
49644;PMS5003;36494;50.730;-1.932;2023-07-22T05:38:03;4;4;
49644;PMS5003;36494;50.730;-1.932;2023-07-22T05:40:28;5;5;
49644;PMS5003;36494;50.730;-1.932;2023-07-22T05:42:54;4;3;
49644;PMS5003;36494;50.730;-1.932;2023-07-22T05:45:19;4;4;
49644;PMS5003;36494;50.730;-1.932;2023-07-22T05:47:44;3;2;
49644;PMS5003;36494;50.730;-1.932;2023-07-22T05:50:09;5;4;
49644;PMS5003;36494;50.730;-1.932;2023-07-22T05:52:35;4;4;
49644;PMS5003;36494;50.730;-1.932;2023-07-22T05:55:00;5;4;
49644;PMS5003;36494;50.730;-1.932;2023-07-22T05:57:25;6;5;
49644;PMS5003;36494;50.730;-1.932;2023-07-22T05:59:50;4;4;
49644;PMS5003;36494;50.730;-1.932;2023-07-22T06:02:16;5;5;
49644;PMS5003;36494;50.730;-1.932;2023-07-22T06:04:42;5;4;
49644;PMS5003;36494;50.730;-1.932;2023-07-22T06:07:07;4;3;
49644;PMS5003;36494;50.730;-1.932;2023-07-22T06:09:33;3;3;
49644;PMS5003;36494;50.730;-1.932;2023-07-22T06:11:58;5;5;
49644;PMS5003;36494;50.730;-1.932;2023-07-22T06:14:23;6;5;
49644;PMS5003;36494;50.730;-1.932;2023-07-22T06:16:49;6;6;
49644;PMS5003;36494;50.730;-1.932;2023-07-22T06:19:15;4;4;
49644;PMS5003;36494;50.730;-1.932;2023-07-22T06:21:40;5;4;
49644;PMS5003;36494;50.730;-1.932;2023-07-22T06:24:05;5;5;
49644;PMS5003;36494;50.730;-1.932;2023-07-22T06:26:30;5;3;
49644;PMS5003;36494;50.730;-1.932;2023-07-22T06:28:56;5;5;
49644;PMS5003;36494;50.730;-1.932;2023-07-22T06:31:21;5;5;
49644;PMS5003;36494;50.730;-1.932;2023-07-22T06:33:46;4;4;
49644;PMS5003;36494;50.730;-1.932;2023-07-22T06:36:11;5;5;
49644;PMS5003;36494;50.730;-1.932;2023-07-22T06:38:37;5;5;
49644;PMS5003;36494;50.730;-1.932;2023-07-22T06:41:02;6;6;
49644;PMS5003;36494;50.730;-1.932;2023-07-22T06:43:27;6;4;
49644;PMS5003;36494;50.730;-1.932;2023-07-22T06:45:52;2;2;
49644;PMS5003;36494;50.730;-1.932;2023-07-22T06:48:18;4;4;
49644;PMS5003;36494;50.730;-1.932;2023-07-22T06:50:46;5;4;
49644;PMS5003;36494;50.730;-1.932;2023-07-22T06:53:08;3;2;
49644;PMS5003;36494;50.730;-1.932;2023-07-22T06:55:34;1;1;
49644;PMS5003;36494;50.730;-1.932;2023-07-22T06:57:59;4;4;
49644;PMS5003;36494;50.730;-1.932;2023-07-22T07:00:24;5;5;
49644;PMS5003;36494;50.730;-1.932;2023-07-22T07:02:50;4;4;
49644;PMS5003;36494;50.730;-1.932;2023-07-22T07:05:15;3;3;
49644;PMS5003;36494;50.730;-1.932;2023-07-22T07:07:41;4;2;
49644;PMS5003;36494;50.730;-1.932;2023-07-22T07:10:06;3;3;
49644;PMS5003;36494;50.730;-1.932;2023-07-22T07:12:31;3;2;
49644;PMS5003;36494;50.730;-1.932;2023-07-22T07:14:57;4;4;
49644;PMS5003;36494;50.730;-1.932;2023-07-22T07:17:22;5;4;
49644;PMS5003;36494;50.730;-1.932;2023-07-22T07:19:48;3;3;
49644;PMS5003;36494;50.730;-1.932;2023-07-22T07:22:13;1;1;
49644;PMS5003;36494;50.730;-1.932;2023-07-22T07:24:39;3;2;
49644;PMS5003;36494;50.730;-1.932;2023-07-22T07:27:04;6;4;
49644;PMS5003;36494;50.730;-1.932;2023-07-22T07:29:29;5;5;
49644;PMS5003;36494;50.730;-1.932;2023-07-22T07:31:55;4;4;
49644;PMS5003;36494;50.730;-1.932;2023-07-22T07:34:21;5;5;
49644;PMS5003;36494;50.730;-1.932;2023-07-22T07:36:46;3;3;
49644;PMS5003;36494;50.730;-1.932;2023-07-22T07:39:12;4;4;
49644;PMS5003;36494;50.730;-1.932;2023-07-22T07:41:38;2;2;
49644;PMS5003;36494;50.730;-1.932;2023-07-22T07:44:03;3;2;
49644;PMS5003;36494;50.730;-1.932;2023-07-22T07:46:28;5;4;
49644;PMS5003;36494;50.730;-1.932;2023-07-22T07:48:54;4;4;
49644;PMS5003;36494;50.730;-1.932;2023-07-22T07:51:19;4;4;
49644;PMS5003;36494;50.730;-1.932;2023-07-22T07:53:44;4;3;
49644;PMS5003;36494;50.730;-1.932;2023-07-22T07:56:10;5;4;
49644;PMS5003;36494;50.730;-1.932;2023-07-22T07:58:35;4;4;
49644;PMS5003;36494;50.730;-1.932;2023-07-22T08:01:00;3;2;
49644;PMS5003;36494;50.730;-1.932;2023-07-22T08:03:26;2;2;
49644;PMS5003;36494;50.730;-1.932;2023-07-22T08:05:51;3;3;
49644;PMS5003;36494;50.730;-1.932;2023-07-22T08:08:16;4;4;
49644;PMS5003;36494;50.730;-1.932;2023-07-22T08:10:41;4;4;
49644;PMS5003;36494;50.730;-1.932;2023-07-22T08:13:07;2;2;
49644;PMS5003;36494;50.730;-1.932;2023-07-22T08:15:33;7;4;
49644;PMS5003;36494;50.730;-1.932;2023-07-22T08:17:58;2;2;
49644;PMS5003;36494;50.730;-1.932;2023-07-22T08:20:23;5;5;
49644;PMS5003;36494;50.730;-1.932;2023-07-22T08:22:49;3;3;
49644;PMS5003;36494;50.730;-1.932;2023-07-22T08:25:14;3;3;
49644;PMS5003;36494;50.730;-1.932;2023-07-22T08:27:40;4;3;
49644;PMS5003;36494;50.730;-1.932;2023-07-22T08:30:06;3;3;
49644;PMS5003;36494;50.730;-1.932;2023-07-22T08:32:31;5;5;
49644;PMS5003;36494;50.730;-1.932;2023-07-22T08:34:56;3;3;
49644;PMS5003;36494;50.730;-1.932;2023-07-22T08:37:21;5;5;
49644;PMS5003;36494;50.730;-1.932;2023-07-22T08:39:46;3;3;
49644;PMS5003;36494;50.730;-1.932;2023-07-22T08:42:12;3;3;
49644;PMS5003;36494;50.730;-1.932;2023-07-22T08:44:37;4;4;
49644;PMS5003;36494;50.730;-1.932;2023-07-22T08:47:03;3;3;
49644;PMS5003;36494;50.730;-1.932;2023-07-22T08:49:28;4;4;
49644;PMS5003;36494;50.730;-1.932;2023-07-22T08:51:53;3;3;
49644;PMS5003;36494;50.730;-1.932;2023-07-22T08:54:18;4;4;
49644;PMS5003;36494;50.730;-1.932;2023-07-22T08:56:44;6;6;
49644;PMS5003;36494;50.730;-1.932;2023-07-22T08:59:09;5;5;
49644;PMS5003;36494;50.730;-1.932;2023-07-22T09:01:34;3;3;
49644;PMS5003;36494;50.730;-1.932;2023-07-22T09:04:00;6;6;
49644;PMS5003;36494;50.730;-1.932;2023-07-22T09:06:25;7;6;
49644;PMS5003;36494;50.730;-1.932;2023-07-22T09:08:50;3;3;
49644;PMS5003;36494;50.730;-1.932;2023-07-22T09:11:15;3;3;
49644;PMS5003;36494;50.730;-1.932;2023-07-22T09:13:41;4;4;
49644;PMS5003;36494;50.730;-1.932;2023-07-22T09:16:06;6;6;
49644;PMS5003;36494;50.730;-1.932;2023-07-22T09:18:32;5;5;
49644;PMS5003;36494;50.730;-1.932;2023-07-22T09:20:57;7;5;
49644;PMS5003;36494;50.730;-1.932;2023-07-22T09:25:47;4;4;
49644;PMS5003;36494;50.730;-1.932;2023-07-22T09:28:13;6;5;
49644;PMS5003;36494;50.730;-1.932;2023-07-22T09:30:39;6;6;
49644;PMS5003;36494;50.730;-1.932;2023-07-22T09:33:05;3;3;
49644;PMS5003;36494;50.730;-1.932;2023-07-22T09:35:31;8;8;
49644;PMS5003;36494;50.730;-1.932;2023-07-22T09:37:55;5;5;
49644;PMS5003;36494;50.730;-1.932;2023-07-22T09:40:21;8;7;
49644;PMS5003;36494;50.730;-1.932;2023-07-22T09:42:47;8;7;
49644;PMS5003;36494;50.730;-1.932;2023-07-22T09:45:12;7;6;
49644;PMS5003;36494;50.730;-1.932;2023-07-22T09:47:41;7;6;
49644;PMS5003;36494;50.730;-1.932;2023-07-22T09:50:03;6;6;
49644;PMS5003;36494;50.730;-1.932;2023-07-22T09:52:28;4;4;
49644;PMS5003;36494;50.730;-1.932;2023-07-22T09:54:53;7;6;
49644;PMS5003;36494;50.730;-1.932;2023-07-22T09:57:19;9;6;
49644;PMS5003;36494;50.730;-1.932;2023-07-22T09:59:44;7;7;
49644;PMS5003;36494;50.730;-1.932;2023-07-22T10:02:09;6;6;
49644;PMS5003;36494;50.730;-1.932;2023-07-22T10:04:35;11;11;
49644;PMS5003;36494;50.730;-1.932;2023-07-22T10:07:01;6;5;
49644;PMS5003;36494;50.730;-1.932;2023-07-22T10:09:26;8;7;
49644;PMS5003;36494;50.730;-1.932;2023-07-22T10:11:51;8;7;
49644;PMS5003;36494;50.730;-1.932;2023-07-22T10:14:16;10;9;
49644;PMS5003;36494;50.730;-1.932;2023-07-22T10:16:42;9;8;
49644;PMS5003;36494;50.730;-1.932;2023-07-22T10:19:07;6;6;
49644;PMS5003;36494;50.730;-1.932;2023-07-22T10:21:32;8;8;
49644;PMS5003;36494;50.730;-1.932;2023-07-22T10:23:58;7;7;
49644;PMS5003;36494;50.730;-1.932;2023-07-22T10:26:23;8;8;
49644;PMS5003;36494;50.730;-1.932;2023-07-22T10:28:48;10;8;
49644;PMS5003;36494;50.730;-1.932;2023-07-22T10:31:14;10;10;
49644;PMS5003;36494;50.730;-1.932;2023-07-22T10:33:40;13;9;
49644;PMS5003;36494;50.730;-1.932;2023-07-22T10:36:06;8;8;
49644;PMS5003;36494;50.730;-1.932;2023-07-22T10:38:31;15;11;
49644;PMS5003;36494;50.730;-1.932;2023-07-22T10:40:56;11;9;
49644;PMS5003;36494;50.730;-1.932;2023-07-22T10:43:23;8;8;
49644;PMS5003;36494;50.730;-1.932;2023-07-22T10:45:49;7;7;
49644;PMS5003;36494;50.730;-1.932;2023-07-22T10:48:13;14;12;
49644;PMS5003;36494;50.730;-1.932;2023-07-22T10:50:40;14;12;
49644;PMS5003;36494;50.730;-1.932;2023-07-22T10:53:04;14;12;
49644;PMS5003;36494;50.730;-1.932;2023-07-22T10:55:29;8;8;
49644;PMS5003;36494;50.730;-1.932;2023-07-22T10:58:03;14;13;
49644;PMS5003;36494;50.730;-1.932;2023-07-22T11:00:21;14;13;
49644;PMS5003;36494;50.730;-1.932;2023-07-22T11:02:47;14;13;
49644;PMS5003;36494;50.730;-1.932;2023-07-22T11:05:12;11;10;
49644;PMS5003;36494;50.730;-1.932;2023-07-22T11:07:42;12;11;
49644;PMS5003;36494;50.730;-1.932;2023-07-22T11:10:15;17;16;
49644;PMS5003;36494;50.730;-1.932;2023-07-22T11:12:28;12;12;
49644;PMS5003;36494;50.730;-1.932;2023-07-22T11:15:01;12;12;
49644;PMS5003;36494;50.730;-1.932;2023-07-22T11:19:45;15;14;
49644;PMS5003;36494;50.730;-1.932;2023-07-22T11:22:10;19;16;
49644;PMS5003;36494;50.730;-1.932;2023-07-22T11:24:36;14;13;
49644;PMS5003;36494;50.730;-1.932;2023-07-22T11:27:02;17;16;
49644;PMS5003;36494;50.730;-1.932;2023-07-22T11:29:27;15;14;
49644;PMS5003;36494;50.730;-1.932;2023-07-22T11:31:53;20;16;
49644;PMS5003;36494;50.730;-1.932;2023-07-22T11:34:19;12;11;
49644;PMS5003;36494;50.730;-1.932;2023-07-22T11:36:44;15;14;
49644;PMS5003;36494;50.730;-1.932;2023-07-22T11:39:10;16;14;
49644;PMS5003;36494;50.730;-1.932;2023-07-22T11:41:35;16;16;
49644;PMS5003;36494;50.730;-1.932;2023-07-22T11:44:00;11;11;
49644;PMS5003;36494;50.730;-1.932;2023-07-22T11:46:25;13;12;
49644;PMS5003;36494;50.730;-1.932;2023-07-22T11:48:51;15;14;
49644;PMS5003;36494;50.730;-1.932;2023-07-22T11:51:16;13;12;
49644;PMS5003;36494;50.730;-1.932;2023-07-22T11:53:41;13;12;
49644;PMS5003;36494;50.730;-1.932;2023-07-22T11:56:07;16;14;
49644;PMS5003;36494;50.730;-1.932;2023-07-22T11:58:33;13;11;
49644;PMS5003;36494;50.730;-1.932;2023-07-22T12:01:04;17;16;
49644;PMS5003;36494;50.730;-1.932;2023-07-22T12:03:23;15;14;
49644;PMS5003;36494;50.730;-1.932;2023-07-22T12:05:48;18;18;
49644;PMS5003;36494;50.730;-1.932;2023-07-22T12:08:14;19;15;
49644;PMS5003;36494;50.730;-1.932;2023-07-22T12:10:40;18;17;
49644;PMS5003;36494;50.730;-1.932;2023-07-22T12:13:05;17;16;
49644;PMS5003;36494;50.730;-1.932;2023-07-22T12:15:31;19;18;
49644;PMS5003;36494;50.730;-1.932;2023-07-22T12:17:57;17;17;
49644;PMS5003;36494;50.730;-1.932;2023-07-22T12:20:23;18;17;
49644;PMS5003;36494;50.730;-1.932;2023-07-22T12:22:46;17;15;
49644;PMS5003;36494;50.730;-1.932;2023-07-22T12:25:11;19;17;
49644;PMS5003;36494;50.730;-1.932;2023-07-22T12:27:37;21;18;
49644;PMS5003;36494;50.730;-1.932;2023-07-22T12:30:02;15;15;
49644;PMS5003;36494;50.730;-1.932;2023-07-22T12:32:28;20;17;
49644;PMS5003;36494;50.730;-1.932;2023-07-22T12:34:53;18;18;
49644;PMS5003;36494;50.730;-1.932;2023-07-22T12:37:18;18;18;
49644;PMS5003;36494;50.730;-1.932;2023-07-22T12:39:44;16;16;
49644;PMS5003;36494;50.730;-1.932;2023-07-22T12:42:09;21;18;
49644;PMS5003;36494;50.730;-1.932;2023-07-22T12:44:35;18;17;
49644;PMS5003;36494;50.730;-1.932;2023-07-22T12:47:01;19;19;
49644;PMS5003;36494;50.730;-1.932;2023-07-22T12:49:26;19;19;
49644;PMS5003;36494;50.730;-1.932;2023-07-22T12:51:52;14;14;
49644;PMS5003;36494;50.730;-1.932;2023-07-22T12:54:17;19;19;
49644;PMS5003;36494;50.730;-1.932;2023-07-22T12:56:42;23;23;
49644;PMS5003;36494;50.730;-1.932;2023-07-22T12:59:07;18;15;
49644;PMS5003;36494;50.730;-1.932;2023-07-22T13:01:32;21;19;
49644;PMS5003;36494;50.730;-1.932;2023-07-22T13:03:58;23;19;
49644;PMS5003;36494;50.730;-1.932;2023-07-22T13:06:23;26;21;
49644;PMS5003;36494;50.730;-1.932;2023-07-22T13:08:49;19;18;
49644;PMS5003;36494;50.730;-1.932;2023-07-22T13:11:14;16;15;
49644;PMS5003;36494;50.730;-1.932;2023-07-22T13:13:39;16;14;
49644;PMS5003;36494;50.730;-1.932;2023-07-22T13:16:05;20;18;
49644;PMS5003;36494;50.730;-1.932;2023-07-22T13:18:31;24;23;
49644;PMS5003;36494;50.730;-1.932;2023-07-22T13:20:57;13;12;
49644;PMS5003;36494;50.730;-1.932;2023-07-22T13:23:22;19;18;
49644;PMS5003;36494;50.730;-1.932;2023-07-22T13:25:47;23;20;
49644;PMS5003;36494;50.730;-1.932;2023-07-22T13:28:13;18;17;
49644;PMS5003;36494;50.730;-1.932;2023-07-22T13:30:38;18;17;
49644;PMS5003;36494;50.730;-1.932;2023-07-22T13:33:03;17;16;
49644;PMS5003;36494;50.730;-1.932;2023-07-22T13:35:29;18;15;
49644;PMS5003;36494;50.730;-1.932;2023-07-22T13:37:54;17;15;
49644;PMS5003;36494;50.730;-1.932;2023-07-22T13:40:20;16;14;
49644;PMS5003;36494;50.730;-1.932;2023-07-22T13:42:45;19;18;
49644;PMS5003;36494;50.730;-1.932;2023-07-22T13:45:11;17;17;
49644;PMS5003;36494;50.730;-1.932;2023-07-22T13:47:36;23;22;
49644;PMS5003;36494;50.730;-1.932;2023-07-22T13:50:02;17;15;
49644;PMS5003;36494;50.730;-1.932;2023-07-22T13:52:27;15;15;
49644;PMS5003;36494;50.730;-1.932;2023-07-22T13:54:52;21;20;
49644;PMS5003;36494;50.730;-1.932;2023-07-22T13:57:17;24;19;
49644;PMS5003;36494;50.730;-1.932;2023-07-22T13:59:43;24;22;
49644;PMS5003;36494;50.730;-1.932;2023-07-22T14:02:08;22;21;
49644;PMS5003;36494;50.730;-1.932;2023-07-22T14:04:33;25;22;
49644;PMS5003;36494;50.730;-1.932;2023-07-22T14:06:59;25;21;
49644;PMS5003;36494;50.730;-1.932;2023-07-22T14:09:25;18;16;
49644;PMS5003;36494;50.730;-1.932;2023-07-22T14:11:50;17;15;
49644;PMS5003;36494;50.730;-1.932;2023-07-22T14:14:15;20;20;
49644;PMS5003;36494;50.730;-1.932;2023-07-22T14:16:41;19;19;
49644;PMS5003;36494;50.730;-1.932;2023-07-22T14:19:06;26;22;
49644;PMS5003;36494;50.730;-1.932;2023-07-22T14:21:31;25;21;
49644;PMS5003;36494;50.730;-1.932;2023-07-22T14:23:57;22;20;
49644;PMS5003;36494;50.730;-1.932;2023-07-22T14:26:22;22;20;
49644;PMS5003;36494;50.730;-1.932;2023-07-22T14:28:48;23;22;
49644;PMS5003;36494;50.730;-1.932;2023-07-22T14:31:13;20;18;
49644;PMS5003;36494;50.730;-1.932;2023-07-22T14:33:38;22;20;
49644;PMS5003;36494;50.730;-1.932;2023-07-22T14:36:04;19;18;
49644;PMS5003;36494;50.730;-1.932;2023-07-22T14:38:30;18;16;
49644;PMS5003;36494;50.730;-1.932;2023-07-22T14:40:55;19;18;
49644;PMS5003;36494;50.730;-1.932;2023-07-22T14:43:21;24;23;
49644;PMS5003;36494;50.730;-1.932;2023-07-22T14:45:46;20;16;
49644;PMS5003;36494;50.730;-1.932;2023-07-22T14:48:11;25;21;
49644;PMS5003;36494;50.730;-1.932;2023-07-22T14:50:37;18;17;
49644;PMS5003;36494;50.730;-1.932;2023-07-22T14:53:02;17;17;
49644;PMS5003;36494;50.730;-1.932;2023-07-22T14:55:28;21;19;
49644;PMS5003;36494;50.730;-1.932;2023-07-22T14:57:53;22;20;
49644;PMS5003;36494;50.730;-1.932;2023-07-22T15:00:19;15;15;
49644;PMS5003;36494;50.730;-1.932;2023-07-22T15:02:44;18;15;
49644;PMS5003;36494;50.730;-1.932;2023-07-22T15:05:09;18;17;
49644;PMS5003;36494;50.730;-1.932;2023-07-22T15:07:35;15;13;
49644;PMS5003;36494;50.730;-1.932;2023-07-22T15:10:00;18;18;
49644;PMS5003;36494;50.730;-1.932;2023-07-22T15:12:25;15;15;
49644;PMS5003;36494;50.730;-1.932;2023-07-22T15:14:51;17;15;
49644;PMS5003;36494;50.730;-1.932;2023-07-22T15:17:16;14;14;
49644;PMS5003;36494;50.730;-1.932;2023-07-22T15:19:42;12;10;
49644;PMS5003;36494;50.730;-1.932;2023-07-22T15:22:07;15;14;
49644;PMS5003;36494;50.730;-1.932;2023-07-22T15:24:33;15;11;
49644;PMS5003;36494;50.730;-1.932;2023-07-22T15:26:58;15;14;
49644;PMS5003;36494;50.730;-1.932;2023-07-22T15:29:23;15;13;
49644;PMS5003;36494;50.730;-1.932;2023-07-22T15:31:49;17;15;
49644;PMS5003;36494;50.730;-1.932;2023-07-22T15:34:15;14;13;
49644;PMS5003;36494;50.730;-1.932;2023-07-22T15:36:40;13;12;
49644;PMS5003;36494;50.730;-1.932;2023-07-22T15:39:05;13;12;
49644;PMS5003;36494;50.730;-1.932;2023-07-22T15:41:31;11;10;
49644;PMS5003;36494;50.730;-1.932;2023-07-22T15:43:55;13;11;
49644;PMS5003;36494;50.730;-1.932;2023-07-22T15:46:21;15;14;
49644;PMS5003;36494;50.730;-1.932;2023-07-22T15:48:47;13;11;
49644;PMS5003;36494;50.730;-1.932;2023-07-22T15:51:13;11;9;
49644;PMS5003;36494;50.730;-1.932;2023-07-22T15:53:38;13;12;
49644;PMS5003;36494;50.730;-1.932;2023-07-22T15:56:04;11;10;
49644;PMS5003;36494;50.730;-1.932;2023-07-22T15:58:29;9;9;
49644;PMS5003;36494;50.730;-1.932;2023-07-22T16:00:54;8;7;
49644;PMS5003;36494;50.730;-1.932;2023-07-22T16:03:19;9;9;
49644;PMS5003;36494;50.730;-1.932;2023-07-22T16:05:45;11;10;
49644;PMS5003;36494;50.730;-1.932;2023-07-22T16:08:11;11;10;
49644;PMS5003;36494;50.730;-1.932;2023-07-22T16:10:36;12;12;
49644;PMS5003;36494;50.730;-1.932;2023-07-22T16:13:02;8;8;
49644;PMS5003;36494;50.730;-1.932;2023-07-22T16:15:27;12;12;
49644;PMS5003;36494;50.730;-1.932;2023-07-22T16:17:53;16;13;